createdAt,value
2023-03-26T00:01:00.864Z,0.90
2023-03-26T00:03:03.098Z,1.08
2023-03-26T00:05:05.330Z,1.33
2023-03-26T00:07:06.793Z,0.98
2023-03-26T00:09:13.162Z,1.00
2023-03-26T00:11:17.178Z,1.23
2023-03-26T00:13:18.565Z,1.20
2023-03-26T00:15:19.994Z,1.50
2023-03-26T00:17:21.583Z,1.65
2023-03-26T00:19:22.968Z,1.40
2023-03-26T00:21:27.640Z,1.52
2023-03-26T00:23:30.252Z,1.73
2023-03-26T00:25:34.829Z,1.70
2023-03-26T00:27:36.366Z,1.88
2023-03-26T00:29:39.832Z,1.67
2023-03-26T00:31:46.204Z,1.80
2023-03-26T00:33:48.055Z,1.80
2023-03-26T00:35:58.611Z,2.17
2023-03-26T00:38:01.097Z,2.00
2023-03-26T00:40:06.985Z,2.15
2023-03-26T00:42:08.377Z,2.03
2023-03-26T00:44:10.472Z,2.40
2023-03-26T00:46:12.141Z,1.75
2023-03-26T00:48:14.457Z,1.98
2023-03-26T00:50:16.224Z,2.25
2023-03-26T00:52:21.026Z,2.22
2023-03-26T00:54:22.452Z,1.70
2023-03-26T00:56:24.178Z,2.40
2023-03-26T00:58:26.976Z,2.50
2023-03-26T01:00:35.454Z,2.35
2023-03-26T01:02:36.983Z,2.65
2023-03-26T01:04:38.622Z,2.30
2023-03-26T01:06:42.457Z,2.60
2023-03-26T01:08:48.592Z,2.17
2023-03-26T01:10:53.648Z,2.05
2023-03-26T01:12:55.023Z,2.10
2023-03-26T01:15:00.670Z,2.92
2023-03-26T01:17:07.884Z,2.63
2023-03-26T01:19:29.272Z,1.98
2023-03-26T01:21:30.676Z,3.13
2023-03-26T01:23:40.465Z,2.60
2023-03-26T01:25:49.378Z,3.05
2023-03-26T01:27:55.796Z,2.47
2023-03-26T01:30:17.386Z,2.50
2023-03-26T01:32:27.784Z,3.03
2023-03-26T01:34:46.996Z,2.25
2023-03-26T01:37:02.558Z,2.70
2023-03-26T01:39:30.821Z,2.35
2023-03-26T01:41:39.795Z,3.28
2023-03-26T01:43:54.144Z,2.67
2023-03-26T01:45:59.883Z,2.72
2023-03-26T01:48:02.102Z,2.78
2023-03-26T01:50:03.749Z,2.80
2023-03-26T01:52:34.516Z,2.97
2023-03-26T01:54:37.118Z,2.53
2023-03-26T01:56:50.781Z,3.03
2023-03-26T01:59:06.247Z,3.42
2023-03-26T02:01:36.591Z,3.08
2023-03-26T02:03:51.526Z,2.90
2023-03-26T02:06:22.689Z,2.63
2023-03-26T02:08:35.441Z,2.90
2023-03-26T02:10:41.449Z,2.55
2023-03-26T02:12:44.576Z,2.97
2023-03-26T02:14:46.337Z,2.50
2023-03-26T02:16:47.880Z,2.97
2023-03-26T02:18:55.517Z,2.13
2023-03-26T02:20:56.889Z,2.50
2023-03-26T02:22:58.598Z,2.60
2023-03-26T02:25:00.008Z,2.42
2023-03-26T02:27:02.166Z,3.03
2023-03-26T02:29:03.790Z,2.65
2023-03-26T02:31:06.364Z,2.42
2023-03-26T02:33:07.810Z,2.88
2023-03-26T02:35:10.102Z,2.92
2023-03-26T02:37:11.522Z,3.08
2023-03-26T02:39:14.185Z,3.13
2023-03-26T02:41:15.734Z,2.30
2023-03-26T02:43:17.182Z,2.70
2023-03-26T02:45:18.592Z,2.92
2023-03-26T02:47:20.152Z,2.30
2023-03-26T02:49:21.853Z,2.80
2023-03-26T02:51:23.310Z,2.65
2023-03-26T02:53:29.821Z,2.40
2023-03-26T02:55:31.296Z,2.38
2023-03-26T02:57:32.793Z,2.78
2023-03-26T02:59:34.188Z,2.38
2023-03-26T03:01:35.704Z,2.83
2023-03-26T03:03:37.790Z,2.45
2023-03-26T03:05:43.122Z,2.75
2023-03-26T03:07:46.334Z,2.55
2023-03-26T03:09:50.580Z,3.00
2023-03-26T03:11:52.641Z,2.55
2023-03-26T03:13:54.389Z,2.90
2023-03-26T03:15:56.346Z,2.97
2023-03-26T03:17:58.011Z,2.65
2023-03-26T03:19:59.501Z,2.20
2023-03-26T03:22:00.970Z,2.75
2023-03-26T03:24:02.421Z,2.60
2023-03-26T03:26:04.015Z,2.70
2023-03-26T03:28:05.960Z,3.30
2023-03-26T03:30:08.901Z,2.78
2023-03-26T03:32:10.277Z,2.75
2023-03-26T03:34:11.666Z,2.20
2023-03-26T03:36:19.923Z,2.50
2023-03-26T03:38:22.495Z,3.22
2023-03-26T03:40:24.094Z,2.60
2023-03-26T03:42:27.281Z,3.70
2023-03-26T03:44:28.718Z,2.67
2023-03-26T03:46:30.261Z,2.28
2023-03-26T03:48:31.681Z,1.85
2023-03-26T03:50:35.653Z,2.42
2023-03-26T03:52:37.406Z,2.53
2023-03-26T03:54:38.783Z,2.08
2023-03-26T03:56:40.259Z,2.47
2023-03-26T03:58:42.186Z,2.08
2023-03-26T04:00:44.807Z,2.00
2023-03-26T04:02:46.384Z,2.17
2023-03-26T04:04:50.235Z,2.03
2023-03-26T04:06:52.642Z,2.28
2023-03-26T04:08:53.987Z,2.08
2023-03-26T04:10:55.617Z,2.80
2023-03-26T04:12:57.065Z,2.05
2023-03-26T04:14:58.938Z,2.38
2023-03-26T04:17:00.542Z,2.33
2023-03-26T04:19:03.834Z,3.15
2023-03-26T04:21:07.298Z,2.97
2023-03-26T04:23:13.934Z,2.53
2023-03-26T04:25:15.519Z,2.35
2023-03-26T04:27:20.346Z,2.83
2023-03-26T04:29:25.602Z,2.35
2023-03-26T04:31:30.980Z,2.63
2023-03-26T04:33:34.615Z,2.13
2023-03-26T04:35:36.158Z,2.20
2023-03-26T04:37:40.703Z,1.88
2023-03-26T04:39:42.113Z,1.88
2023-03-26T04:41:43.524Z,1.88
2023-03-26T04:43:50.429Z,2.70
2023-03-26T04:45:53.293Z,2.17
2023-03-26T04:47:55.464Z,2.83
2023-03-26T04:49:56.979Z,2.45
2023-03-26T04:51:58.466Z,2.83
2023-03-26T04:54:00.857Z,2.92
2023-03-26T04:56:32.890Z,2.20
2023-03-26T04:58:35.255Z,2.40
2023-03-26T05:00:36.684Z,2.03
2023-03-26T05:02:39.827Z,2.33
2023-03-26T05:04:43.696Z,2.65
2023-03-26T05:06:45.338Z,2.00
2023-03-26T05:08:46.720Z,2.00
2023-03-26T05:10:48.126Z,2.10
2023-03-26T05:12:49.797Z,2.85
2023-03-26T05:14:51.167Z,2.42
2023-03-26T05:16:55.785Z,2.47
2023-03-26T05:18:57.419Z,2.30
2023-03-26T05:20:58.955Z,2.33
2023-03-26T05:23:00.409Z,2.20
2023-03-26T05:25:01.871Z,2.30
2023-03-26T05:27:03.285Z,2.65
2023-03-26T05:29:05.146Z,2.17
2023-03-26T05:31:08.094Z,1.73
2023-03-26T05:33:09.524Z,2.28
2023-03-26T05:35:11.606Z,2.78
2023-03-26T05:37:13.723Z,2.35
2023-03-26T05:39:15.170Z,1.88
2023-03-26T05:41:16.936Z,2.15
2023-03-26T05:43:18.308Z,2.20
2023-03-26T05:45:22.525Z,2.65
2023-03-26T05:47:23.944Z,2.20
2023-03-26T05:49:25.502Z,2.83
2023-03-26T05:51:26.930Z,2.47
2023-03-26T05:53:28.544Z,1.95
2023-03-26T05:55:33.313Z,2.30
2023-03-26T05:57:35.529Z,2.72
2023-03-26T05:59:37.001Z,1.92
2023-03-26T06:01:38.520Z,2.15
2023-03-26T06:03:40.399Z,2.50
2023-03-26T06:05:42.996Z,1.92
2023-03-26T06:07:44.358Z,1.83
2023-03-26T06:09:46.359Z,2.40
2023-03-26T06:11:47.741Z,2.20
2023-03-26T06:13:49.133Z,1.80
2023-03-26T06:15:50.804Z,2.47
2023-03-26T06:17:52.206Z,3.03
2023-03-26T06:19:53.599Z,2.05
2023-03-26T06:21:55.102Z,2.22
2023-03-26T06:23:56.592Z,2.45
2023-03-26T06:25:58.611Z,2.22
2023-03-26T06:28:00.208Z,2.58
2023-03-26T06:30:01.624Z,2.35
2023-03-26T06:32:12.701Z,2.38
2023-03-26T06:34:21.285Z,2.13
2023-03-26T06:36:22.695Z,2.90
2023-03-26T06:38:24.265Z,2.35
2023-03-26T06:40:25.920Z,2.20
2023-03-26T06:43:07.500Z,2.00
2023-03-26T06:44:48.688Z,1.60
2023-03-26T06:46:50.195Z,2.03
2023-03-26T06:48:52.053Z,1.80
2023-03-26T06:50:53.677Z,1.80
2023-03-26T06:52:56.103Z,2.25
2023-03-26T06:54:57.483Z,1.60
2023-03-26T06:56:59.847Z,1.73
2023-03-26T06:59:01.366Z,1.90
2023-03-26T07:01:02.936Z,2.28
2023-03-26T07:03:05.108Z,2.10
2023-03-26T07:05:06.810Z,1.80
2023-03-26T07:07:08.425Z,2.50
2023-03-26T07:09:09.821Z,2.65
2023-03-26T07:11:11.246Z,2.00
2023-03-26T07:13:12.703Z,2.65
2023-03-26T07:15:14.202Z,2.38
2023-03-26T07:17:15.691Z,1.98
2023-03-26T07:19:17.452Z,2.38
2023-03-26T07:21:19.863Z,2.28
2023-03-26T07:23:21.544Z,2.05
2023-03-26T07:25:23.205Z,1.77
2023-03-26T07:27:31.612Z,2.80
2023-03-26T07:29:57.610Z,1.60
2023-03-26T07:32:25.271Z,1.92
2023-03-26T07:34:56.105Z,2.10
2023-03-26T07:37:04.641Z,2.45
2023-03-26T07:39:14.894Z,1.85
2023-03-26T07:41:37.346Z,1.90
2023-03-26T07:44:04.853Z,1.42
2023-03-26T07:46:11.657Z,2.15
2023-03-26T07:48:21.894Z,2.00
2023-03-26T07:50:24.856Z,1.77
2023-03-26T07:52:27.230Z,2.28
2023-03-26T07:54:28.914Z,2.40
2023-03-26T07:56:49.217Z,2.15
2023-03-26T07:58:53.434Z,1.73
2023-03-26T08:01:03.457Z,2.42
2023-03-26T08:03:27.711Z,1.55
2023-03-26T08:05:37.178Z,1.88
2023-03-26T08:08:13.656Z,1.85
2023-03-26T08:10:43.047Z,1.75
2023-03-26T08:13:11.532Z,2.00
2023-03-26T08:15:25.679Z,1.45
2023-03-26T08:17:44.875Z,2.28
2023-03-26T08:19:57.918Z,2.08
2023-03-26T08:22:06.910Z,2.45
2023-03-26T08:24:18.168Z,1.70
2023-03-26T08:26:49.326Z,2.25
2023-03-26T08:29:27.342Z,1.70
2023-03-26T08:31:38.926Z,2.05
2023-03-26T08:33:40.758Z,2.40
2023-03-26T08:35:42.725Z,2.33
2023-03-26T08:37:45.271Z,2.28
2023-03-26T08:39:46.706Z,2.63
2023-03-26T08:42:12.787Z,2.47
2023-03-26T08:44:26.093Z,1.90
2023-03-26T08:49:09.778Z,1.55
2023-03-26T08:51:30.915Z,2.08
2023-03-26T08:53:57.065Z,2.15
2023-03-26T08:56:16.877Z,1.90
2023-03-26T08:58:30.399Z,1.98
2023-03-26T09:00:37.826Z,2.25
2023-03-26T09:03:17.802Z,2.20
2023-03-26T09:05:37.688Z,1.65
2023-03-26T09:08:04.647Z,2.10
2023-03-26T09:10:43.648Z,2.00
2023-03-26T09:13:06.422Z,2.33
2023-03-26T09:15:28.991Z,1.77
2023-03-26T09:17:56.620Z,2.85
2023-03-26T09:20:25.616Z,1.92
2023-03-26T09:23:15.342Z,2.15
2023-03-26T09:25:53.128Z,2.00
2023-03-26T09:28:00.479Z,1.83
2023-03-26T09:30:39.388Z,2.55
2023-03-26T09:33:18.492Z,2.20
2023-03-26T09:35:38.123Z,2.35
2023-03-26T09:37:57.069Z,2.60
2023-03-26T09:40:17.363Z,2.70
2023-03-26T09:42:44.918Z,2.85
2023-03-26T09:45:13.705Z,2.60
2023-03-26T09:47:40.736Z,2.28
2023-03-26T09:49:49.142Z,2.35
2023-03-26T09:51:59.549Z,2.30
2023-03-26T09:54:40.670Z,2.38
2023-03-26T09:56:52.797Z,2.85
2023-03-26T09:59:26.081Z,2.60
2023-03-26T10:01:58.487Z,1.85
2023-03-26T10:04:15.010Z,2.00
2023-03-26T10:06:30.788Z,2.97
2023-03-26T10:08:34.930Z,2.55
2023-03-26T10:10:58.981Z,2.22
2023-03-26T10:13:14.919Z,2.30
2023-03-26T10:15:32.460Z,2.38
2023-03-26T10:17:50.864Z,2.25
2023-03-26T10:20:09.623Z,2.20
2023-03-26T10:22:48.656Z,2.13
2023-03-26T10:25:08.989Z,1.73
2023-03-26T10:27:48.120Z,2.83
2023-03-26T10:30:04.708Z,2.10
2023-03-26T10:32:46.628Z,1.77
2023-03-26T10:34:57.811Z,2.15
2023-03-26T10:37:19.399Z,2.28
2023-03-26T10:39:51.235Z,1.88
2023-03-26T10:42:15.388Z,1.92
2023-03-26T10:44:22.838Z,1.70
2023-03-26T10:46:58.549Z,1.65
2023-03-26T10:49:37.620Z,1.70
2023-03-26T10:51:53.339Z,1.52
2023-03-26T10:54:11.178Z,1.73
2023-03-26T10:56:38.877Z,1.75
2023-03-26T10:58:48.462Z,1.58
2023-03-26T11:01:06.378Z,1.90
2023-03-26T11:03:13.371Z,2.10
2023-03-26T11:07:41.861Z,2.03
2023-03-26T11:10:16.631Z,1.77
2023-03-26T11:12:39.784Z,2.20
2023-03-26T11:14:56.605Z,2.75
2023-03-26T11:17:40.842Z,2.72
2023-03-26T11:19:51.520Z,1.50
2023-03-26T11:22:08.882Z,2.10
2023-03-26T11:24:13.406Z,1.27
2023-03-26T11:26:34.563Z,0.95
2023-03-26T11:29:31.896Z,0.63
2023-03-26T11:31:38.974Z,0.80
2023-03-26T11:33:45.964Z,1.10
2023-03-26T11:35:51.666Z,0.75
2023-03-26T11:37:59.227Z,0.82
2023-03-26T11:40:06.388Z,0.90
2023-03-26T11:42:14.012Z,0.73
2023-03-26T11:44:28.186Z,1.33
2023-03-26T11:46:33.195Z,0.60
2023-03-26T11:48:46.149Z,0.70
2023-03-26T11:50:51.769Z,1.08
2023-03-26T11:52:58.980Z,0.68
2023-03-26T11:55:00.404Z,0.65
2023-03-26T11:57:08.316Z,0.90
2023-03-26T11:59:23.649Z,1.00
2023-03-26T12:01:31.760Z,0.90
2023-03-26T12:03:33.756Z,0.93
2023-03-26T12:05:48.508Z,0.98
2023-03-26T12:07:53.785Z,0.60
2023-03-26T12:10:18.179Z,0.90
2023-03-26T12:12:24.709Z,1.00
2023-03-26T12:14:28.343Z,0.70
2023-03-26T12:16:30.483Z,1.17
2023-03-26T12:18:32.379Z,1.45
2023-03-26T12:20:36.632Z,1.30
2023-03-26T12:22:43.372Z,1.00
2023-03-26T12:24:45.870Z,1.42
2023-03-26T12:26:48.934Z,1.23
2023-03-26T12:28:51.131Z,1.00
2023-03-26T12:31:00.766Z,0.88
2023-03-26T12:33:05.818Z,0.85
2023-03-26T12:35:14.113Z,0.52
2023-03-26T12:37:35.489Z,1.08
2023-03-26T12:40:09.489Z,0.70
2023-03-26T12:43:40.319Z,0.70
2023-03-26T12:44:59.270Z,0.68
2023-03-26T12:47:57.603Z,0.80
2023-03-26T12:49:37.820Z,0.65
2023-03-26T12:51:52.364Z,0.50
2023-03-26T12:54:23.729Z,0.60
2023-03-26T12:56:49.808Z,0.60
2023-03-26T12:59:36.439Z,0.35
2023-03-26T13:01:46.549Z,0.68
2023-03-26T13:04:13.512Z,0.90
2023-03-26T13:06:48.467Z,0.60
2023-03-26T13:09:11.842Z,0.63
2023-03-26T13:11:19.370Z,0.63
2023-03-26T13:13:45.652Z,0.50
2023-03-26T13:15:56.873Z,0.82
2023-03-26T13:18:23.225Z,1.10
2023-03-26T13:20:27.503Z,0.85
2023-03-26T13:22:59.620Z,0.85
2023-03-26T13:27:33.798Z,1.05
2023-03-26T13:29:56.964Z,0.70
2023-03-26T13:32:12.697Z,0.90
2023-03-26T13:34:19.429Z,1.30
2023-03-26T13:36:29.710Z,0.70
2023-03-26T13:38:59.083Z,0.90
2023-03-26T13:41:13.173Z,0.70
2023-03-26T13:43:28.243Z,0.60
2023-03-26T13:45:50.845Z,0.63
2023-03-26T13:47:57.110Z,0.63
2023-03-26T13:50:20.943Z,0.63
2023-03-26T13:52:33.134Z,0.82
2023-03-26T13:54:44.124Z,0.80
2023-03-26T13:57:15.009Z,0.80
2023-03-26T13:59:31.772Z,0.90
2023-03-26T14:01:41.075Z,1.08
2023-03-26T14:04:07.626Z,0.98
2023-03-26T14:06:48.888Z,0.60
2023-03-26T14:08:58.144Z,1.00
2023-03-26T14:11:22.757Z,0.70
2023-03-26T14:13:49.568Z,0.70
2023-03-26T14:15:58.926Z,0.80
2023-03-26T14:18:25.813Z,0.70
2023-03-26T14:21:02.937Z,1.67
2023-03-26T14:23:16.601Z,1.17
2023-03-26T14:25:49.053Z,0.70
2023-03-26T14:28:02.001Z,0.95
2023-03-26T14:30:41.249Z,0.63
2023-03-26T14:33:27.197Z,0.65
2023-03-26T14:35:38.704Z,0.70
2023-03-26T14:37:47.912Z,0.70
2023-03-26T14:39:55.346Z,0.70
2023-03-26T14:42:02.104Z,0.85
2023-03-26T14:44:47.997Z,0.73
2023-03-26T14:47:16.664Z,0.80
2023-03-26T14:49:43.616Z,0.93
2023-03-26T14:51:58.864Z,0.82
2023-03-26T14:54:06.833Z,1.00
2023-03-26T14:56:26.229Z,0.93
2023-03-26T14:58:55.787Z,0.77
2023-03-26T15:01:22.424Z,0.70
2023-03-26T15:04:08.534Z,0.90
2023-03-26T15:06:25.163Z,0.57
2023-03-26T15:08:34.350Z,0.80
2023-03-26T15:11:13.337Z,0.80
2023-03-26T15:13:36.553Z,0.90
2023-03-26T15:16:05.100Z,1.02
2023-03-26T15:18:27.726Z,0.77
2023-03-26T15:20:35.058Z,0.77
2023-03-26T15:23:07.514Z,0.80
2023-03-26T15:25:14.709Z,0.60
2023-03-26T15:27:42.173Z,0.60
2023-03-26T15:29:49.410Z,0.73
2023-03-26T15:32:12.459Z,0.50
2023-03-26T15:34:58.295Z,0.70
2023-03-26T15:37:38.097Z,0.65
2023-03-26T15:40:08.065Z,0.65
2023-03-26T15:42:30.891Z,0.95
2023-03-26T15:44:50.957Z,0.82
2023-03-26T15:47:40.318Z,1.10
2023-03-26T15:49:49.114Z,0.70
2023-03-26T15:52:22.030Z,0.95
2023-03-26T15:54:35.566Z,1.10
2023-03-26T15:56:55.221Z,0.55
2023-03-26T15:59:23.417Z,1.15
2023-03-26T16:01:50.134Z,1.20
2023-03-26T16:04:09.021Z,1.20
2023-03-26T16:06:35.806Z,1.00
2023-03-26T16:09:17.128Z,1.20
2023-03-26T16:11:56.020Z,0.93
2023-03-26T16:14:23.204Z,1.10
2023-03-26T16:16:50.599Z,1.02
2023-03-26T16:18:58.399Z,1.30
2023-03-26T16:21:31.503Z,1.70
2023-03-26T16:24:12.523Z,1.67
2023-03-26T16:26:22.922Z,1.55
2023-03-26T16:28:29.230Z,2.10
2023-03-26T16:30:32.900Z,2.10
2023-03-26T16:32:40.353Z,1.70
2023-03-26T16:35:20.620Z,2.30
2023-03-26T16:37:45.623Z,1.88
2023-03-26T16:39:47.255Z,1.80
2023-03-26T16:41:50.042Z,2.10
2023-03-26T16:43:56.058Z,2.30
2023-03-26T16:46:08.376Z,2.20
2023-03-26T16:48:34.458Z,2.38
2023-03-26T16:50:56.645Z,2.58
2023-03-26T16:53:13.581Z,3.40
2023-03-26T16:55:34.517Z,2.65
2023-03-26T16:58:03.452Z,3.00
2023-03-26T17:00:16.294Z,3.75
2023-03-26T17:02:32.047Z,4.15
2023-03-26T17:04:35.446Z,3.83
2023-03-26T17:07:08.829Z,4.45
2023-03-26T17:09:51.665Z,3.90
2023-03-26T17:12:11.648Z,5.03
2023-03-26T17:14:28.881Z,4.85
2023-03-26T17:16:37.970Z,5.90
2023-03-26T17:19:07.924Z,5.85
2023-03-26T17:21:13.711Z,6.30
2023-03-26T17:23:39.011Z,5.75
2023-03-26T17:26:09.036Z,5.72
2023-03-26T17:28:22.332Z,5.85
2023-03-26T17:32:58.564Z,5.70
2023-03-26T17:35:03.520Z,5.28
2023-03-26T17:37:10.422Z,6.13
2023-03-26T17:39:38.646Z,5.30
2023-03-26T17:41:54.865Z,5.75
2023-03-26T17:43:56.850Z,5.13
2023-03-26T17:46:03.681Z,4.70
2023-03-26T17:48:16.700Z,4.72
2023-03-26T17:50:26.978Z,4.78
2023-03-26T17:52:33.242Z,5.35
2023-03-26T17:54:41.134Z,5.05
2023-03-26T17:56:43.042Z,4.80
2023-03-26T17:58:49.139Z,4.40
2023-03-26T18:00:56.772Z,5.10
2023-03-26T18:03:31.108Z,5.07
2023-03-26T18:05:34.300Z,4.75
2023-03-26T18:07:57.905Z,3.95
2023-03-26T18:10:33.082Z,4.18
2023-03-26T18:13:05.347Z,3.90
2023-03-26T18:15:32.311Z,3.65
2023-03-26T18:17:41.425Z,3.10
2023-03-26T18:19:48.955Z,3.17
2023-03-26T18:21:52.873Z,2.90
2023-03-26T18:24:00.641Z,3.50
2023-03-26T18:26:32.553Z,3.85
2023-03-26T18:28:43.593Z,3.47
2023-03-26T18:30:48.553Z,3.83
2023-03-26T18:33:05.037Z,3.22
2023-03-26T18:35:21.290Z,2.63
2023-03-26T18:37:31.717Z,3.28
2023-03-26T18:39:33.141Z,3.17
2023-03-26T18:41:41.603Z,3.03
2023-03-26T18:43:44.350Z,3.28
2023-03-26T18:45:49.836Z,2.65
2023-03-26T18:48:19.058Z,3.20
2023-03-26T18:50:27.427Z,3.40
2023-03-26T18:52:31.415Z,3.10
2023-03-26T18:54:35.984Z,3.00
2023-03-26T18:56:39.643Z,2.83
2023-03-26T18:58:41.706Z,2.75
2023-03-26T19:00:44.155Z,2.60
2023-03-26T19:02:49.649Z,3.13
2023-03-26T19:04:54.241Z,2.80
2023-03-26T19:06:56.852Z,2.35
2023-03-26T19:08:58.804Z,2.70
2023-03-26T19:11:04.754Z,2.88
2023-03-26T19:13:14.013Z,2.22
2023-03-26T19:15:19.960Z,2.30
2023-03-26T19:17:22.980Z,2.10
2023-03-26T19:19:32.781Z,2.45
2023-03-26T19:21:35.749Z,3.30
2023-03-26T19:23:41.017Z,2.78
2023-03-26T19:25:48.163Z,3.03
2023-03-26T19:27:50.654Z,3.25
2023-03-26T19:29:53.049Z,4.55
2023-03-26T19:32:05.519Z,3.63
2023-03-26T19:34:17.422Z,3.53
2023-03-26T19:36:34.478Z,3.83
2023-03-26T19:38:51.983Z,3.00
2023-03-26T19:40:58.107Z,2.92
2023-03-26T19:42:59.869Z,2.75
2023-03-26T19:45:04.162Z,2.03
2023-03-26T19:47:26.786Z,2.30
2023-03-26T19:49:47.616Z,2.55
2023-03-26T19:51:53.129Z,1.80
2023-03-26T19:53:58.449Z,2.33
2023-03-26T19:56:09.745Z,2.47
2023-03-26T19:58:11.168Z,2.20
2023-03-26T20:00:14.206Z,1.75
2023-03-26T20:02:15.827Z,2.10
2023-03-26T20:04:17.280Z,1.65
2023-03-26T20:06:30.721Z,1.75
2023-03-26T20:08:40.607Z,2.08
2023-03-26T20:10:42.913Z,2.08
2023-03-26T20:12:44.661Z,1.73
2023-03-26T20:14:46.432Z,1.92
2023-03-26T20:16:47.883Z,2.05
2023-03-26T20:18:50.710Z,2.42
2023-03-26T20:20:53.810Z,1.88
2023-03-26T20:22:55.306Z,1.75
2023-03-26T20:24:56.841Z,1.58
2023-03-26T20:26:58.219Z,1.50
2023-03-26T20:28:59.946Z,1.48
2023-03-26T20:31:01.402Z,1.90
2023-03-26T20:33:12.541Z,1.50
2023-03-26T20:35:16.233Z,1.55
2023-03-26T20:37:17.853Z,1.77
2023-03-26T20:39:19.384Z,1.92
2023-03-26T20:41:23.281Z,2.25
2023-03-26T20:43:28.686Z,1.80
2023-03-26T20:45:30.199Z,1.80
2023-03-26T20:47:31.581Z,2.03
2023-03-26T20:49:33.185Z,1.55
2023-03-26T20:51:34.591Z,1.80
2023-03-26T20:53:36.039Z,1.60
2023-03-26T20:55:37.485Z,1.70
2023-03-26T20:57:38.938Z,1.40
2023-03-26T20:59:40.343Z,1.55
2023-03-26T21:01:42.073Z,1.60
2023-03-26T21:03:46.565Z,1.85
2023-03-26T21:05:51.180Z,1.55
2023-03-26T21:07:54.859Z,1.55
2023-03-26T21:09:57.957Z,1.90
2023-03-26T21:12:05.009Z,1.38
2023-03-26T21:16:17.551Z,1.15
2023-03-26T21:18:19.286Z,1.60
2023-03-26T21:20:22.099Z,1.23
2023-03-26T21:22:37.292Z,1.40
2023-03-26T21:24:39.048Z,1.58
2023-03-26T21:26:59.016Z,1.27
2023-03-26T21:29:00.964Z,1.00
2023-03-26T21:31:04.313Z,1.48
2023-03-26T21:33:06.406Z,1.23
2023-03-26T21:35:08.799Z,1.20
2023-03-26T21:37:10.532Z,1.73
2023-03-26T21:39:12.186Z,2.08
2023-03-26T21:41:35.837Z,1.40
2023-03-26T21:43:37.280Z,1.65
2023-03-26T21:45:39.659Z,1.52
2023-03-26T21:47:41.897Z,1.13
2023-03-26T21:49:43.605Z,1.40
2023-03-26T21:51:45.462Z,1.73
2023-03-26T21:53:47.397Z,1.63
2023-03-26T21:55:48.730Z,2.17
2023-03-26T21:58:11.162Z,1.77
2023-03-26T22:00:18.144Z,1.23
2023-03-26T22:02:38.187Z,1.48
2023-03-26T22:04:48.336Z,1.40
2023-03-26T22:07:15.674Z,1.30
2023-03-26T22:09:20.736Z,1.58
2023-03-26T22:11:27.892Z,1.65
2023-03-26T22:13:29.302Z,1.95
2023-03-26T22:15:31.071Z,1.42
2023-03-26T22:17:32.789Z,2.65
2023-03-26T22:19:34.612Z,1.40
2023-03-26T22:21:36.071Z,1.42
2023-03-26T22:23:38.614Z,1.42
2023-03-26T22:25:40.116Z,1.65
2023-03-26T22:27:44.042Z,1.25
2023-03-26T22:29:46.474Z,1.88
2023-03-26T22:31:47.853Z,1.13
2023-03-26T22:33:49.265Z,1.40
2023-03-26T22:35:52.193Z,1.75
2023-03-26T22:38:00.825Z,1.80
2023-03-26T22:40:08.642Z,1.40
2023-03-26T22:42:10.053Z,1.65
2023-03-26T22:44:19.951Z,1.92
2023-03-26T22:46:22.574Z,1.67
2023-03-26T22:48:24.441Z,1.30
2023-03-26T22:50:25.994Z,2.58
2023-03-26T22:52:28.105Z,1.35
2023-03-26T22:54:29.469Z,1.40
2023-03-26T22:56:30.857Z,1.40
2023-03-26T22:58:34.267Z,1.17
2023-03-26T23:00:36.122Z,1.70
2023-03-26T23:02:38.048Z,1.85
2023-03-26T23:04:39.473Z,2.00
2023-03-26T23:06:40.998Z,1.88
2023-03-26T23:08:42.852Z,1.38
2023-03-26T23:10:44.250Z,1.60
2023-03-26T23:12:45.757Z,1.83
2023-03-26T23:14:52.190Z,1.60
2023-03-26T23:16:53.640Z,1.92
2023-03-26T23:18:55.031Z,1.70
2023-03-26T23:20:58.497Z,2.20
2023-03-26T23:23:01.181Z,1.00
2023-03-26T23:25:03.237Z,2.30
2023-03-26T23:27:06.517Z,1.58
2023-03-26T23:29:07.954Z,1.50
2023-03-26T23:31:12.413Z,2.28
2023-03-26T23:33:14.408Z,1.17
2023-03-26T23:35:16.020Z,1.75
2023-03-26T23:37:22.781Z,1.52
2023-03-26T23:39:26.049Z,1.95
2023-03-26T23:41:27.554Z,1.80
2023-03-26T23:43:29.175Z,2.05
2023-03-26T23:45:30.786Z,2.30
2023-03-26T23:47:34.890Z,3.33
2023-03-26T23:49:37.315Z,3.42
2023-03-26T23:51:38.702Z,3.90
2023-03-26T23:53:40.193Z,2.35
2023-03-26T23:55:44.153Z,2.47
2023-03-26T23:57:46.267Z,2.22
2023-03-26T23:59:48.448Z,2.15
